createdAt,value
2017-12-03T00:01:02.957Z,1027.30
2017-12-03T00:02:30.111Z,1027.28
2017-12-03T00:03:57.307Z,1027.28
2017-12-03T00:05:24.566Z,1027.24
2017-12-03T00:06:51.749Z,1027.22
2017-12-03T00:08:18.920Z,1027.18
2017-12-03T00:09:46.312Z,1027.17
2017-12-03T00:11:13.309Z,1027.17
2017-12-03T00:12:40.451Z,1027.16
2017-12-03T00:14:07.618Z,1027.16
2017-12-03T00:15:34.872Z,1027.13
2017-12-03T00:17:04.952Z,1027.09
2017-12-03T00:18:29.197Z,1027.07
2017-12-03T00:19:56.418Z,1027.10
2017-12-03T00:21:23.629Z,1027.11
2017-12-03T00:22:50.662Z,1027.14
2017-12-03T00:24:18.094Z,1027.15
2017-12-03T00:25:45.081Z,1027.13
2017-12-03T00:27:12.271Z,1027.11
2017-12-03T00:28:39.331Z,1027.10
2017-12-03T00:30:06.291Z,1027.08
2017-12-03T00:31:33.583Z,1027.08
2017-12-03T00:33:00.666Z,1027.06
2017-12-03T00:34:27.989Z,1027.02
2017-12-03T00:35:55.113Z,1027.02
2017-12-03T00:37:22.170Z,1027.01
2017-12-03T00:38:49.401Z,1026.96
2017-12-03T00:40:16.612Z,1026.94
2017-12-03T00:41:43.908Z,1026.91
2017-12-03T00:43:10.991Z,1026.91
2017-12-03T00:44:38.344Z,1026.86
2017-12-03T00:46:05.484Z,1026.86
2017-12-03T00:47:32.480Z,1026.85
2017-12-03T00:48:59.701Z,1026.85
2017-12-03T00:50:27.063Z,1026.86
2017-12-03T00:51:54.099Z,1026.86
2017-12-03T00:53:21.190Z,1026.85
2017-12-03T00:54:48.553Z,1026.83
2017-12-03T00:56:15.895Z,1026.82
2017-12-03T00:57:42.753Z,1026.78
2017-12-03T00:59:10.041Z,1026.75
2017-12-03T01:00:37.117Z,1026.76
2017-12-03T01:02:04.254Z,1026.75
2017-12-03T01:03:31.415Z,1026.71
2017-12-03T01:04:58.663Z,1026.72
2017-12-03T01:06:25.879Z,1026.72
2017-12-03T01:07:52.983Z,1026.70
2017-12-03T01:09:20.220Z,1026.68
2017-12-03T01:10:47.648Z,1026.66
2017-12-03T01:12:14.840Z,1026.63
2017-12-03T01:13:41.738Z,1026.61
2017-12-03T01:15:08.887Z,1026.60
2017-12-03T01:16:36.041Z,1026.61
2017-12-03T01:18:03.202Z,1026.61
2017-12-03T01:19:30.404Z,1026.63
2017-12-03T01:20:57.610Z,1026.61
2017-12-03T01:22:24.729Z,1026.58
2017-12-03T01:23:51.942Z,1026.56
2017-12-03T01:25:19.090Z,1026.54
2017-12-03T01:26:46.481Z,1026.50
2017-12-03T01:28:13.496Z,1026.52
2017-12-03T01:29:40.609Z,1026.49
2017-12-03T01:31:07.758Z,1026.49
2017-12-03T01:32:35.046Z,1026.49
2017-12-03T01:34:02.351Z,1026.46
2017-12-03T01:35:29.328Z,1026.42
2017-12-03T01:36:56.505Z,1026.44
2017-12-03T01:38:23.750Z,1026.40
2017-12-03T01:39:50.835Z,1026.38
2017-12-03T01:41:17.798Z,1026.35
2017-12-03T01:42:44.934Z,1026.35
2017-12-03T01:44:12.224Z,1026.30
2017-12-03T01:45:39.319Z,1026.28
2017-12-03T01:47:06.202Z,1026.25
2017-12-03T01:48:33.504Z,1026.22
2017-12-03T01:50:00.459Z,1026.21
2017-12-03T01:51:27.668Z,1026.19
2017-12-03T01:52:54.866Z,1026.15
2017-12-03T01:54:22.011Z,1026.20
2017-12-03T01:55:49.326Z,1026.17
2017-12-03T01:57:16.211Z,1026.16
2017-12-03T01:58:43.417Z,1026.17
2017-12-03T02:00:10.608Z,1026.14
2017-12-03T02:01:37.653Z,1026.13
2017-12-03T02:03:04.781Z,1026.10
2017-12-03T02:04:31.826Z,1026.10
2017-12-03T02:05:59.056Z,1026.01
2017-12-03T02:07:26.235Z,1025.97
2017-12-03T02:08:53.698Z,1025.95
2017-12-03T02:10:20.829Z,1025.93
2017-12-03T02:11:48.094Z,1025.92
2017-12-03T02:13:15.366Z,1025.88
2017-12-03T02:14:42.575Z,1025.91
2017-12-03T02:16:09.903Z,1025.86
2017-12-03T02:17:37.225Z,1025.89
2017-12-03T02:19:04.418Z,1025.91
2017-12-03T02:20:31.506Z,1025.93
2017-12-03T02:21:58.524Z,1025.91
2017-12-03T02:23:25.599Z,1025.85
2017-12-03T02:24:52.663Z,1025.80
2017-12-03T02:26:19.712Z,1025.78
2017-12-03T02:27:46.932Z,1025.80
2017-12-03T02:29:14.281Z,1025.82
2017-12-03T02:30:41.454Z,1025.80
2017-12-03T02:32:08.845Z,1025.83
2017-12-03T02:33:35.807Z,1025.81
2017-12-03T02:35:02.916Z,1025.81
2017-12-03T02:36:30.103Z,1025.80
2017-12-03T02:37:57.261Z,1025.74
2017-12-03T02:39:24.459Z,1025.70
2017-12-03T02:40:51.572Z,1025.70
2017-12-03T02:42:18.682Z,1025.69
2017-12-03T02:43:46.038Z,1025.65
2017-12-03T02:45:13.134Z,1025.68
2017-12-03T02:46:40.150Z,1025.66
2017-12-03T02:48:07.448Z,1025.65
2017-12-03T02:49:34.731Z,1025.61
2017-12-03T02:51:01.869Z,1025.60
2017-12-03T02:52:28.939Z,1025.58
2017-12-03T02:53:55.975Z,1025.59
2017-12-03T02:55:23.130Z,1025.53
2017-12-03T02:56:50.398Z,1025.55
2017-12-03T02:58:17.643Z,1025.53
2017-12-03T02:59:44.773Z,1025.48
2017-12-03T03:01:12.209Z,1025.48
2017-12-03T03:02:39.070Z,1025.47
2017-12-03T03:04:06.488Z,1025.43
2017-12-03T03:05:33.854Z,1025.42
2017-12-03T03:07:00.966Z,1025.39
2017-12-03T03:08:27.987Z,1025.40
2017-12-03T03:09:55.181Z,1025.36
2017-12-03T03:11:22.476Z,1025.33
2017-12-03T03:12:49.548Z,1025.29
2017-12-03T03:14:16.636Z,1025.25
2017-12-03T03:15:43.776Z,1025.23
2017-12-03T03:17:11.115Z,1025.24
2017-12-03T03:18:38.288Z,1025.22
2017-12-03T03:20:05.558Z,1025.22
2017-12-03T03:21:32.584Z,1025.14
2017-12-03T03:22:59.524Z,1025.13
2017-12-03T03:24:26.856Z,1025.09
2017-12-03T03:25:54.212Z,1025.06
2017-12-03T03:27:21.487Z,1025.05
2017-12-03T03:28:48.783Z,1025.01
2017-12-03T03:30:16.144Z,1025.01
2017-12-03T03:31:43.264Z,1024.98
2017-12-03T03:33:10.456Z,1025.02
2017-12-03T03:34:37.694Z,1025.02
2017-12-03T03:36:04.776Z,1025.03
2017-12-03T03:37:31.972Z,1025.03
2017-12-03T03:39:02.209Z,1025.03
2017-12-03T03:40:26.384Z,1025.02
2017-12-03T03:41:53.818Z,1024.99
2017-12-03T03:43:21.066Z,1024.98
2017-12-03T03:44:48.220Z,1024.98
2017-12-03T03:46:15.543Z,1024.97
2017-12-03T03:47:42.854Z,1024.94
2017-12-03T03:49:10.020Z,1024.94
2017-12-03T03:50:37.310Z,1024.96
2017-12-03T03:52:04.566Z,1024.95
2017-12-03T03:53:31.628Z,1024.96
2017-12-03T03:54:58.937Z,1024.93
2017-12-03T03:56:26.219Z,1024.91
2017-12-03T03:57:53.329Z,1024.88
2017-12-03T03:59:20.570Z,1024.90
2017-12-03T04:00:47.787Z,1024.86
2017-12-03T04:02:14.964Z,1024.87
2017-12-03T04:03:41.999Z,1024.85
2017-12-03T04:05:09.081Z,1024.79
2017-12-03T04:06:36.257Z,1024.78
2017-12-03T04:08:03.578Z,1024.76
2017-12-03T04:09:30.624Z,1024.69
2017-12-03T04:10:57.937Z,1024.70
2017-12-03T04:12:25.238Z,1024.69
2017-12-03T04:13:52.324Z,1024.66
2017-12-03T04:15:19.539Z,1024.66
2017-12-03T04:16:46.822Z,1024.70
2017-12-03T04:18:14.083Z,1024.69
2017-12-03T04:19:41.279Z,1024.69
2017-12-03T04:21:08.600Z,1024.69
2017-12-03T04:22:35.664Z,1024.68
2017-12-03T04:24:02.840Z,1024.68
2017-12-03T04:25:29.943Z,1024.67
2017-12-03T04:26:57.236Z,1024.66
2017-12-03T04:28:24.391Z,1024.65
2017-12-03T04:29:51.643Z,1024.67
2017-12-03T04:31:18.659Z,1024.64
2017-12-03T04:32:45.959Z,1024.62
2017-12-03T04:34:13.310Z,1024.63
2017-12-03T04:35:40.221Z,1024.60
2017-12-03T04:37:07.654Z,1024.59
2017-12-03T04:38:34.531Z,1024.62
2017-12-03T04:40:01.678Z,1024.60
2017-12-03T04:41:28.851Z,1024.58
2017-12-03T04:42:55.914Z,1024.56
2017-12-03T04:44:23.166Z,1024.53
2017-12-03T04:45:50.193Z,1024.49
2017-12-03T04:47:17.307Z,1024.51
2017-12-03T04:48:44.570Z,1024.49
2017-12-03T04:50:11.652Z,1024.46
2017-12-03T04:51:38.902Z,1024.44
2017-12-03T04:53:06.241Z,1024.39
2017-12-03T04:54:33.329Z,1024.38
2017-12-03T04:56:00.334Z,1024.37
2017-12-03T04:57:27.664Z,1024.39
2017-12-03T04:58:54.817Z,1024.39
2017-12-03T05:00:21.699Z,1024.36
2017-12-03T05:01:48.933Z,1024.37
2017-12-03T05:03:16.158Z,1024.38
2017-12-03T05:04:42.979Z,1024.38
2017-12-03T05:06:10.156Z,1024.33
2017-12-03T05:07:37.337Z,1024.31
2017-12-03T05:09:04.457Z,1024.29
2017-12-03T05:10:31.592Z,1024.31
2017-12-03T05:11:58.697Z,1024.29
2017-12-03T05:13:25.774Z,1024.25
2017-12-03T05:14:52.881Z,1024.25
2017-12-03T05:16:20.172Z,1024.22
2017-12-03T05:17:47.330Z,1024.18
2017-12-03T05:19:14.532Z,1024.19
2017-12-03T05:20:41.733Z,1024.16
2017-12-03T05:22:08.890Z,1024.18
2017-12-03T05:23:36.162Z,1024.16
2017-12-03T05:25:03.326Z,1024.17
2017-12-03T05:26:30.316Z,1024.12
2017-12-03T05:27:57.596Z,1024.13
2017-12-03T05:29:24.816Z,1024.12
2017-12-03T05:30:51.912Z,1024.10
2017-12-03T05:32:19.204Z,1024.14
2017-12-03T05:33:46.617Z,1024.16
2017-12-03T05:35:13.557Z,1024.14
2017-12-03T05:36:40.846Z,1024.14
2017-12-03T05:38:08.022Z,1024.09
2017-12-03T05:39:35.064Z,1024.08
2017-12-03T05:41:02.053Z,1024.09
2017-12-03T05:42:29.249Z,1024.04
2017-12-03T05:43:56.518Z,1024.02
2017-12-03T05:45:23.783Z,1024.00
2017-12-03T05:46:51.087Z,1023.99
2017-12-03T05:48:18.146Z,1023.97
2017-12-03T05:49:45.266Z,1023.95
2017-12-03T05:51:12.433Z,1023.94
2017-12-03T05:52:39.509Z,1023.94
2017-12-03T05:54:06.616Z,1023.92
2017-12-03T05:55:33.662Z,1023.90
2017-12-03T05:57:00.939Z,1023.89
2017-12-03T05:58:28.256Z,1023.88
2017-12-03T05:59:55.372Z,1023.85
2017-12-03T06:01:22.451Z,1023.84
2017-12-03T06:02:49.944Z,1023.81
2017-12-03T06:04:17.324Z,1023.80
2017-12-03T06:05:44.249Z,1023.81
2017-12-03T06:07:11.472Z,1023.79
2017-12-03T06:08:38.624Z,1023.80
2017-12-03T06:10:05.694Z,1023.81
2017-12-03T06:11:32.697Z,1023.80
2017-12-03T06:12:59.903Z,1023.82
2017-12-03T06:14:27.127Z,1023.83
2017-12-03T06:15:54.422Z,1023.82
2017-12-03T06:17:21.651Z,1023.81
2017-12-03T06:18:48.881Z,1023.77
2017-12-03T06:20:15.930Z,1023.74
2017-12-03T06:21:43.166Z,1023.72
2017-12-03T06:23:10.319Z,1023.70
2017-12-03T06:24:37.490Z,1023.70
2017-12-03T06:26:04.828Z,1023.69
2017-12-03T06:27:31.994Z,1023.71
2017-12-03T06:28:58.982Z,1023.70
2017-12-03T06:30:26.076Z,1023.67
2017-12-03T06:31:53.268Z,1023.68
2017-12-03T06:33:20.529Z,1023.66
2017-12-03T06:34:47.907Z,1023.64
2017-12-03T06:36:15.183Z,1023.64
2017-12-03T06:37:42.490Z,1023.65
2017-12-03T06:39:09.887Z,1023.62
2017-12-03T06:40:36.985Z,1023.65
2017-12-03T06:42:04.211Z,1023.60
2017-12-03T06:43:31.182Z,1023.61
2017-12-03T06:44:58.452Z,1023.62
2017-12-03T06:46:25.698Z,1023.63
2017-12-03T06:47:52.980Z,1023.61
2017-12-03T06:49:20.126Z,1023.60
2017-12-03T06:50:47.498Z,1023.63
2017-12-03T06:52:14.574Z,1023.62
2017-12-03T06:53:41.841Z,1023.61
2017-12-03T06:55:09.330Z,1023.61
2017-12-03T06:56:36.545Z,1023.58
2017-12-03T06:58:03.684Z,1023.58
2017-12-03T06:59:30.137Z,1023.54
2017-12-03T07:00:57.265Z,1023.56
2017-12-03T07:02:24.459Z,1023.55
2017-12-03T07:03:51.743Z,1023.52
2017-12-03T07:05:19.123Z,1023.48
2017-12-03T07:06:46.155Z,1023.48
2017-12-03T07:08:13.105Z,1023.53
2017-12-03T07:09:40.298Z,1023.51
2017-12-03T07:11:07.435Z,1023.56
2017-12-03T07:12:34.671Z,1023.50
2017-12-03T07:14:01.757Z,1023.52
2017-12-03T07:15:28.980Z,1023.49
2017-12-03T07:16:56.199Z,1023.49
2017-12-03T07:18:23.576Z,1023.48
2017-12-03T07:19:50.837Z,1023.45
2017-12-03T07:21:18.033Z,1023.44
2017-12-03T07:22:45.339Z,1023.44
2017-12-03T07:24:12.673Z,1023.48
2017-12-03T07:25:39.476Z,1023.45
2017-12-03T07:27:06.791Z,1023.40
2017-12-03T07:28:33.942Z,1023.42
2017-12-03T07:30:01.076Z,1023.42
2017-12-03T07:31:28.368Z,1023.42
2017-12-03T07:32:55.592Z,1023.43
2017-12-03T07:34:22.997Z,1023.41
2017-12-03T07:35:50.206Z,1023.41
2017-12-03T07:37:17.333Z,1023.36
2017-12-03T07:38:44.646Z,1023.34
2017-12-03T07:40:11.885Z,1023.32
2017-12-03T07:41:38.942Z,1023.33
2017-12-03T07:43:06.006Z,1023.31
2017-12-03T07:44:33.344Z,1023.31
2017-12-03T07:46:00.358Z,1023.34
2017-12-03T07:47:28.503Z,1023.35
2017-12-03T07:48:54.697Z,1023.38
2017-12-03T07:50:21.866Z,1023.34
2017-12-03T07:51:49.266Z,1023.33
2017-12-03T07:53:16.500Z,1023.34
2017-12-03T07:54:43.753Z,1023.34
2017-12-03T07:56:10.904Z,1023.32
2017-12-03T07:57:38.139Z,1023.33
2017-12-03T07:59:05.220Z,1023.32
2017-12-03T08:00:32.494Z,1023.27
2017-12-03T08:01:59.791Z,1023.27
2017-12-03T08:03:27.151Z,1023.26
2017-12-03T08:04:54.344Z,1023.32
2017-12-03T08:06:21.670Z,1023.27
2017-12-03T08:07:48.986Z,1023.27
2017-12-03T08:09:16.224Z,1023.30
2017-12-03T08:10:43.417Z,1023.25
2017-12-03T08:12:10.553Z,1023.26
2017-12-03T08:13:37.826Z,1023.23
2017-12-03T08:15:04.903Z,1023.24
2017-12-03T08:16:31.948Z,1023.24
2017-12-03T08:17:59.157Z,1023.24
2017-12-03T08:19:26.381Z,1023.20
2017-12-03T08:20:53.607Z,1023.22
2017-12-03T08:22:20.878Z,1023.20
2017-12-03T08:23:48.161Z,1023.20
2017-12-03T08:25:15.035Z,1023.20
2017-12-03T08:26:42.416Z,1023.21
2017-12-03T08:28:09.467Z,1023.20
2017-12-03T08:29:36.641Z,1023.16
2017-12-03T08:31:03.875Z,1023.18
2017-12-03T08:32:30.957Z,1023.15
2017-12-03T08:33:57.911Z,1023.15
2017-12-03T08:35:25.143Z,1023.12
2017-12-03T08:36:52.356Z,1023.15
2017-12-03T08:38:19.724Z,1023.14
2017-12-03T08:39:46.752Z,1023.13
2017-12-03T08:41:14.060Z,1023.11
2017-12-03T08:42:41.275Z,1023.06
2017-12-03T08:44:08.413Z,1023.02
2017-12-03T08:45:35.678Z,1023.00
2017-12-03T08:47:02.734Z,1022.96
2017-12-03T08:48:29.751Z,1022.98
2017-12-03T08:49:56.971Z,1022.98
2017-12-03T08:51:24.119Z,1023.00
2017-12-03T08:52:51.445Z,1023.01
2017-12-03T08:54:18.629Z,1023.00
2017-12-03T08:55:45.745Z,1023.01
2017-12-03T08:57:12.957Z,1022.98
2017-12-03T08:58:40.132Z,1023.00
2017-12-03T09:00:07.345Z,1023.00
2017-12-03T09:01:34.347Z,1023.00
2017-12-03T09:03:01.498Z,1022.99
2017-12-03T09:04:28.840Z,1022.97
2017-12-03T09:05:55.958Z,1022.98
2017-12-03T09:07:23.306Z,1022.97
2017-12-03T09:08:50.553Z,1022.97
2017-12-03T09:10:17.502Z,1022.96
2017-12-03T09:11:44.779Z,1023.00
2017-12-03T09:13:12.093Z,1022.98
2017-12-03T09:14:39.516Z,1022.92
2017-12-03T09:16:06.592Z,1022.92
2017-12-03T09:17:33.827Z,1022.91
2017-12-03T09:19:01.008Z,1022.90
2017-12-03T09:20:27.963Z,1022.90
2017-12-03T09:21:55.412Z,1022.89
2017-12-03T09:23:22.550Z,1022.88
2017-12-03T09:24:49.743Z,1022.82
2017-12-03T09:26:17.055Z,1022.80
2017-12-03T09:27:44.190Z,1022.78
2017-12-03T09:29:11.302Z,1022.79
2017-12-03T09:30:38.580Z,1022.75
2017-12-03T09:32:05.793Z,1022.77
2017-12-03T09:33:32.896Z,1022.79
2017-12-03T09:34:59.815Z,1022.83
2017-12-03T09:36:27.020Z,1022.82
2017-12-03T09:37:54.329Z,1022.81
2017-12-03T09:39:21.660Z,1022.80
2017-12-03T09:40:48.917Z,1022.77
2017-12-03T09:42:16.140Z,1022.77
2017-12-03T09:43:43.296Z,1022.77
2017-12-03T09:45:10.538Z,1022.77
2017-12-03T09:46:37.723Z,1022.73
2017-12-03T09:48:04.768Z,1022.74
2017-12-03T09:49:31.875Z,1022.72
2017-12-03T09:50:59.042Z,1022.69
2017-12-03T09:52:26.123Z,1022.65
2017-12-03T09:53:53.408Z,1022.62
2017-12-03T09:55:20.627Z,1022.63
2017-12-03T09:56:47.851Z,1022.65
2017-12-03T09:58:15.070Z,1022.65
2017-12-03T09:59:42.384Z,1022.63
2017-12-03T10:01:09.665Z,1022.64
2017-12-03T10:02:36.653Z,1022.62
2017-12-03T10:04:03.920Z,1022.61
2017-12-03T10:05:31.086Z,1022.56
2017-12-03T10:06:58.322Z,1022.52
2017-12-03T10:08:25.623Z,1022.51
2017-12-03T10:09:52.638Z,1022.46
2017-12-03T10:11:19.694Z,1022.41
2017-12-03T10:12:46.858Z,1022.40
2017-12-03T10:14:13.980Z,1022.38
2017-12-03T10:15:40.976Z,1022.37
2017-12-03T10:17:08.012Z,1022.32
2017-12-03T10:18:35.234Z,1022.36
2017-12-03T10:20:02.520Z,1022.32
2017-12-03T10:21:29.862Z,1022.38
2017-12-03T10:22:57.157Z,1022.33
2017-12-03T10:24:24.376Z,1022.33
2017-12-03T10:25:51.608Z,1022.32
2017-12-03T10:27:18.927Z,1022.34
2017-12-03T10:28:46.278Z,1022.28
2017-12-03T10:30:13.390Z,1022.29
2017-12-03T10:31:40.402Z,1022.30
2017-12-03T10:33:07.595Z,1022.29
2017-12-03T10:34:34.801Z,1022.30
2017-12-03T10:36:01.871Z,1022.29
2017-12-03T10:37:29.024Z,1022.29
2017-12-03T10:38:56.063Z,1022.30
2017-12-03T10:40:23.318Z,1022.26
2017-12-03T10:41:50.547Z,1022.22
2017-12-03T10:43:17.814Z,1022.19
2017-12-03T10:44:45.077Z,1022.13
2017-12-03T10:46:12.436Z,1022.15
2017-12-03T10:47:39.495Z,1022.13
2017-12-03T10:49:06.640Z,1022.10
2017-12-03T10:50:33.820Z,1022.10
2017-12-03T10:52:01.009Z,1022.08
2017-12-03T10:53:28.332Z,1022.08
2017-12-03T10:54:55.513Z,1022.04
2017-12-03T10:56:22.686Z,1022.04
2017-12-03T10:57:49.858Z,1022.00
2017-12-03T10:59:17.020Z,1022.00
2017-12-03T11:00:44.199Z,1021.96
2017-12-03T11:02:11.316Z,1021.99
2017-12-03T11:03:38.644Z,1021.96
2017-12-03T11:05:05.876Z,1021.92
2017-12-03T11:06:33.043Z,1021.90
2017-12-03T11:07:59.933Z,1021.88
2017-12-03T11:09:27.209Z,1021.90
2017-12-03T11:10:54.337Z,1021.85
2017-12-03T11:12:21.496Z,1021.81
2017-12-03T11:13:48.711Z,1021.80
2017-12-03T11:15:15.928Z,1021.77
2017-12-03T11:16:43.044Z,1021.68
2017-12-03T11:18:10.249Z,1021.62
2017-12-03T11:19:37.483Z,1021.59
2017-12-03T11:21:04.713Z,1021.62
2017-12-03T11:22:31.717Z,1021.55
2017-12-03T11:23:58.952Z,1021.52
2017-12-03T11:25:26.095Z,1021.49
2017-12-03T11:26:53.264Z,1021.46
2017-12-03T11:28:20.458Z,1021.49
2017-12-03T11:29:47.571Z,1021.42
2017-12-03T11:31:14.803Z,1021.38
2017-12-03T11:32:41.919Z,1021.45
2017-12-03T11:34:09.009Z,1021.49
2017-12-03T11:35:36.284Z,1021.50
2017-12-03T11:37:03.214Z,1021.53
2017-12-03T11:38:30.281Z,1021.54
2017-12-03T11:39:57.511Z,1021.46
2017-12-03T11:41:24.857Z,1021.45
2017-12-03T11:42:52.131Z,1021.43
2017-12-03T11:44:19.379Z,1021.41
2017-12-03T11:45:46.460Z,1021.39
2017-12-03T11:47:13.704Z,1021.35
2017-12-03T11:48:40.888Z,1021.35
2017-12-03T11:50:08.076Z,1021.35
2017-12-03T11:51:35.293Z,1021.30
2017-12-03T11:53:02.348Z,1021.29
2017-12-03T11:54:29.543Z,1021.29
2017-12-03T11:55:56.848Z,1021.26
2017-12-03T11:57:23.928Z,1021.31
2017-12-03T11:58:51.252Z,1021.28
2017-12-03T12:00:18.570Z,1021.27
2017-12-03T12:01:45.766Z,1021.27
2017-12-03T12:03:12.851Z,1021.24
2017-12-03T12:04:40.088Z,1021.21
2017-12-03T12:06:07.163Z,1021.19
2017-12-03T12:07:34.443Z,1021.13
2017-12-03T12:09:01.558Z,1021.14
2017-12-03T12:10:28.766Z,1021.11
2017-12-03T12:11:55.956Z,1021.11
2017-12-03T12:13:23.091Z,1021.08
2017-12-03T12:14:50.346Z,1021.09
2017-12-03T12:16:17.603Z,1021.12
2017-12-03T12:17:44.703Z,1021.14
2017-12-03T12:19:12.017Z,1021.14
2017-12-03T12:20:39.174Z,1021.13
2017-12-03T12:22:06.366Z,1021.12
2017-12-03T12:23:33.516Z,1021.11
2017-12-03T12:25:00.596Z,1021.09
2017-12-03T12:26:27.703Z,1021.05
2017-12-03T12:27:55.043Z,1020.94
2017-12-03T12:29:22.277Z,1020.90
2017-12-03T12:30:49.683Z,1020.84
2017-12-03T12:32:16.863Z,1020.87
2017-12-03T12:33:44.063Z,1020.85
2017-12-03T12:35:11.320Z,1020.86
2017-12-03T12:36:38.558Z,1020.86
2017-12-03T12:38:05.762Z,1020.85
2017-12-03T12:39:32.841Z,1020.85
2017-12-03T12:40:59.873Z,1020.83
2017-12-03T12:42:27.021Z,1020.84
2017-12-03T12:43:54.225Z,1020.75
2017-12-03T12:45:21.387Z,1020.70
2017-12-03T12:46:48.793Z,1020.65
2017-12-03T12:48:15.885Z,1020.69
2017-12-03T12:49:43.258Z,1020.74
2017-12-03T12:51:10.350Z,1020.74
2017-12-03T12:52:37.548Z,1020.74
2017-12-03T12:54:04.666Z,1020.72
2017-12-03T12:55:31.669Z,1020.72
2017-12-03T12:56:58.747Z,1020.71
2017-12-03T12:58:25.868Z,1020.71
2017-12-03T12:59:52.959Z,1020.69
2017-12-03T13:01:20.019Z,1020.70
2017-12-03T13:02:47.073Z,1020.71
2017-12-03T13:04:14.120Z,1020.66
2017-12-03T13:05:41.344Z,1020.68
2017-12-03T13:07:08.476Z,1020.66
2017-12-03T13:08:35.742Z,1020.65
2017-12-03T13:10:02.868Z,1020.60
2017-12-03T13:11:29.993Z,1020.58
2017-12-03T13:12:57.202Z,1020.61
2017-12-03T13:14:24.486Z,1020.55
2017-12-03T13:15:51.702Z,1020.52
2017-12-03T13:17:19.061Z,1020.50
2017-12-03T13:18:46.268Z,1020.50
2017-12-03T13:20:13.530Z,1020.51
2017-12-03T13:21:40.774Z,1020.52
2017-12-03T13:23:08.088Z,1020.55
2017-12-03T13:24:35.134Z,1020.53
2017-12-03T13:26:02.327Z,1020.52
2017-12-03T13:27:29.592Z,1020.50
2017-12-03T13:28:56.785Z,1020.48
2017-12-03T13:30:24.015Z,1020.47
2017-12-03T13:31:51.156Z,1020.46
2017-12-03T13:33:18.134Z,1020.45
2017-12-03T13:34:45.308Z,1020.41
2017-12-03T13:36:12.583Z,1020.44
2017-12-03T13:37:39.708Z,1020.45
2017-12-03T13:39:06.825Z,1020.45
2017-12-03T13:40:34.007Z,1020.38
2017-12-03T13:42:01.129Z,1020.40
2017-12-03T13:43:28.522Z,1020.39
2017-12-03T13:44:55.552Z,1020.39
2017-12-03T13:46:22.702Z,1020.40
2017-12-03T13:47:50.143Z,1020.43
2017-12-03T13:49:17.256Z,1020.45
2017-12-03T13:50:44.615Z,1020.48
2017-12-03T13:52:11.603Z,1020.45
2017-12-03T13:53:38.877Z,1020.42
2017-12-03T13:55:06.004Z,1020.43
2017-12-03T13:56:33.034Z,1020.48
2017-12-03T13:58:00.179Z,1020.46
2017-12-03T13:59:27.253Z,1020.45
2017-12-03T14:00:54.571Z,1020.45
2017-12-03T14:02:21.717Z,1020.45
2017-12-03T14:03:48.923Z,1020.45
2017-12-03T14:05:16.148Z,1020.46
2017-12-03T14:06:43.302Z,1020.41
2017-12-03T14:08:10.547Z,1020.43
2017-12-03T14:09:37.625Z,1020.50
2017-12-03T14:11:04.849Z,1020.48
2017-12-03T14:12:31.895Z,1020.50
2017-12-03T14:13:59.014Z,1020.46
2017-12-03T14:15:26.375Z,1020.48
2017-12-03T14:16:53.546Z,1020.49
2017-12-03T14:18:20.722Z,1020.48
2017-12-03T14:19:47.900Z,1020.50
2017-12-03T14:21:15.055Z,1020.50
2017-12-03T14:22:42.281Z,1020.49
2017-12-03T14:24:09.410Z,1020.52
2017-12-03T14:25:36.638Z,1020.51
2017-12-03T14:27:03.719Z,1020.50
2017-12-03T14:28:30.902Z,1020.47
2017-12-03T14:29:58.097Z,1020.49
2017-12-03T14:31:25.189Z,1020.46
2017-12-03T14:32:52.189Z,1020.45
2017-12-03T14:34:19.438Z,1020.44
2017-12-03T14:35:46.759Z,1020.42
2017-12-03T14:37:14.001Z,1020.40
2017-12-03T14:38:41.258Z,1020.41
2017-12-03T14:40:08.536Z,1020.39
2017-12-03T14:41:35.612Z,1020.37
2017-12-03T14:43:02.772Z,1020.39
2017-12-03T14:44:29.860Z,1020.39
2017-12-03T14:45:57.071Z,1020.42
2017-12-03T14:47:24.254Z,1020.44
2017-12-03T14:48:51.658Z,1020.43
2017-12-03T14:50:18.878Z,1020.44
2017-12-03T14:51:46.143Z,1020.47
2017-12-03T14:53:13.342Z,1020.51
2017-12-03T14:54:40.608Z,1020.52
2017-12-03T14:56:07.880Z,1020.54
2017-12-03T14:57:35.184Z,1020.59
2017-12-03T14:59:02.278Z,1020.59
2017-12-03T15:00:29.646Z,1020.60
2017-12-03T15:01:56.829Z,1020.59
2017-12-03T15:03:24.022Z,1020.56
2017-12-03T15:04:51.131Z,1020.57
2017-12-03T15:06:18.412Z,1020.58
2017-12-03T15:07:45.812Z,1020.57
2017-12-03T15:09:13.016Z,1020.56
2017-12-03T15:10:40.196Z,1020.53
2017-12-03T15:12:07.397Z,1020.50
2017-12-03T15:13:34.567Z,1020.52
2017-12-03T15:15:01.740Z,1020.49
2017-12-03T15:16:28.902Z,1020.44
2017-12-03T15:17:56.169Z,1020.40
2017-12-03T15:19:23.499Z,1020.43
2017-12-03T15:20:50.782Z,1020.47
2017-12-03T15:22:18.074Z,1020.53
2017-12-03T15:23:45.323Z,1020.55
2017-12-03T15:25:12.371Z,1020.55
2017-12-03T15:26:39.680Z,1020.54
2017-12-03T15:28:06.990Z,1020.46
2017-12-03T15:29:34.148Z,1020.43
2017-12-03T15:31:01.142Z,1020.39
2017-12-03T15:32:28.380Z,1020.43
2017-12-03T15:33:55.361Z,1020.48
2017-12-03T15:35:22.611Z,1020.50
2017-12-03T15:36:49.511Z,1020.49
2017-12-03T15:38:16.751Z,1020.48
2017-12-03T15:39:43.946Z,1020.49
2017-12-03T15:41:11.232Z,1020.49
2017-12-03T15:42:38.537Z,1020.42
2017-12-03T15:44:05.593Z,1020.44
2017-12-03T15:45:32.817Z,1020.44
2017-12-03T15:46:59.722Z,1020.47
2017-12-03T15:48:26.954Z,1020.46
2017-12-03T15:49:54.008Z,1020.46
2017-12-03T15:51:21.264Z,1020.45
2017-12-03T15:52:48.578Z,1020.46
2017-12-03T15:54:15.802Z,1020.40
2017-12-03T15:55:42.924Z,1020.41
2017-12-03T15:57:09.964Z,1020.42
2017-12-03T15:58:37.293Z,1020.43
2017-12-03T16:00:04.334Z,1020.39
2017-12-03T16:01:31.524Z,1020.38
2017-12-03T16:02:58.721Z,1020.42
2017-12-03T16:04:25.856Z,1020.40
2017-12-03T16:05:53.116Z,1020.44
2017-12-03T16:07:20.376Z,1020.45
2017-12-03T16:08:47.415Z,1020.41
2017-12-03T16:10:14.747Z,1020.45
2017-12-03T16:11:42.074Z,1020.43
2017-12-03T16:13:09.245Z,1020.47
2017-12-03T16:14:36.400Z,1020.46
2017-12-03T16:16:03.632Z,1020.47
2017-12-03T16:17:30.712Z,1020.50
2017-12-03T16:18:57.778Z,1020.50
2017-12-03T16:20:25.155Z,1020.48
2017-12-03T16:21:52.359Z,1020.46
2017-12-03T16:23:19.649Z,1020.47
2017-12-03T16:24:46.784Z,1020.49
2017-12-03T16:26:14.010Z,1020.47
2017-12-03T16:27:41.143Z,1020.50
2017-12-03T16:29:08.271Z,1020.47
2017-12-03T16:30:35.411Z,1020.48
2017-12-03T16:32:02.535Z,1020.47
2017-12-03T16:33:29.646Z,1020.47
2017-12-03T16:34:56.864Z,1020.49
2017-12-03T16:36:24.185Z,1020.43
2017-12-03T16:37:51.309Z,1020.42
2017-12-03T16:39:18.478Z,1020.38
2017-12-03T16:40:45.699Z,1020.41
2017-12-03T16:42:12.844Z,1020.36
2017-12-03T16:43:40.853Z,1020.39
2017-12-03T16:45:07.120Z,1020.41
2017-12-03T16:46:34.374Z,1020.39
2017-12-03T16:48:01.314Z,1020.41
2017-12-03T16:49:28.651Z,1020.40
2017-12-03T16:50:55.932Z,1020.37
2017-12-03T16:52:23.003Z,1020.37
2017-12-03T16:53:50.335Z,1020.39
2017-12-03T16:55:17.520Z,1020.42
2017-12-03T16:56:44.904Z,1020.44
2017-12-03T16:58:12.242Z,1020.42
2017-12-03T16:59:39.132Z,1020.38
2017-12-03T17:01:06.334Z,1020.41
2017-12-03T17:02:33.425Z,1020.38
2017-12-03T17:04:00.550Z,1020.38
2017-12-03T17:05:27.793Z,1020.36
2017-12-03T17:06:55.050Z,1020.35
2017-12-03T17:08:22.312Z,1020.33
2017-12-03T17:09:49.490Z,1020.32
2017-12-03T17:11:16.721Z,1020.33
2017-12-03T17:12:43.964Z,1020.35
2017-12-03T17:14:11.285Z,1020.33
2017-12-03T17:15:38.622Z,1020.30
2017-12-03T17:17:05.774Z,1020.28
2017-12-03T17:18:32.956Z,1020.27
2017-12-03T17:20:00.150Z,1020.28
2017-12-03T17:21:27.292Z,1020.25
2017-12-03T17:22:54.663Z,1020.24
2017-12-03T17:24:21.930Z,1020.26
2017-12-03T17:25:49.294Z,1020.25
2017-12-03T17:27:16.444Z,1020.27
2017-12-03T17:28:43.562Z,1020.30
2017-12-03T17:30:10.838Z,1020.32
2017-12-03T17:31:38.066Z,1020.32
2017-12-03T17:33:05.237Z,1020.33
2017-12-03T17:34:32.316Z,1020.33